Hibuscus — FAE2798 — position and weather

sailwx.info

Track history (hours):
 
Tides and Currents Weather Stations Pressure Air Temp Water Temp Dewpoint Dewpoint Depression Visibility Wind Speed Wind Dir Waves Ship Positions

Hibuscus

Last reported at 2018-Jul-20 01:37 UTC. Time now 2018-Jul-23 00:16 UTC.
Position N 14°18' W 060°55'.

Length 10 m.

Type: Sailing vessel. MMSI: 347017530.

Date/timePositionNaut miles runAvg speedWind from/ knotsBaromVisibWave heightAir tempDewpointWater temp
2018-Jul-20 01:37N 14°18' W 060°55'1 7.5
2018-Jul-20 01:26N 14°19' W 060°54'4 7.5
2018-Jul-20 00:57N 14°23' W 060°54'4 7.1
2018-Jul-20 00:25N 14°26' W 060°53'1 0.3
2018-Jul-19 22:39N 14°26' W 060°53'0 0.2
2018-Jul-19 21:55N 14°26' W 060°53'2 4.2
2018-Jul-19 21:30N 14°28' W 060°52'  
2018-Jul-17 16:18N 14°28' W 060°52'0 0.0
2018-Jul-17 15:51N 14°28' W 060°52'0 0.0
2018-Jul-17 15:28N 14°28' W 060°52'0 0.0
2018-Jul-17 14:52N 14°28' W 060°52'0 0.0
2018-Jul-17 14:24N 14°28' W 060°52'0 0.0
2018-Jul-17 14:01N 14°28' W 060°52'  
Track history (hours):
 
Tides and Currents Weather Stations Pressure Air Temp Water Temp Dewpoint Dewpoint Depression Visibility Wind Speed Wind Dir Waves Ship Positions

Hibuscus

Last reported at 2018-Jul-20 01:37 UTC. Time now 2018-Jul-23 00:16 UTC.
Position N 14°18' W 060°55'.

Length 10 m.

Type: Sailing vessel. MMSI: 347017530.

Date/timePositionNaut miles runAvg speedWind from/ knotsBaromVisibWave heightAir tempDewpointWater temp
2018-Jul-20 01:37N 14°18' W 060°55'1 7.5
2018-Jul-20 01:26N 14°19' W 060°54'4 7.5
2018-Jul-20 00:57N 14°23' W 060°54'4 7.1
2018-Jul-20 00:25N 14°26' W 060°53'1 0.3
2018-Jul-19 22:39N 14°26' W 060°53'0 0.2
2018-Jul-19 21:55N 14°26' W 060°53'2 4.2
2018-Jul-19 21:30N 14°28' W 060°52'  
2018-Jul-17 16:18N 14°28' W 060°52'0 0.0
2018-Jul-17 15:51N 14°28' W 060°52'0 0.0
2018-Jul-17 15:28N 14°28' W 060°52'0 0.0
2018-Jul-17 14:52N 14°28' W 060°52'0 0.0
2018-Jul-17 14:24N 14°28' W 060°52'0 0.0
2018-Jul-17 14:01N 14°28' W 060°52'  

Dump ship's entire track history